Time;durP1;ratioP1;P1;durP2;ratioP2;P2;SDS_P1;SDS_P2;PMS_P1;PMS_P2;Temp;Humidity;BMP_temperature;BMP_pressure;BME280_temperature;BME280_humidity;BME280_pressure;Samples;Min_cycle;Max_cycle;Signal;HPM_P1;HPM_P2
2022/05/10 00:01:21;;;;;;;19.92;13.23;;;12.30;97.50;;;;;;5055745;28;20049;-76
2022/05/10 00:03:55;;;;;;;22.58;14.32;;;12.30;85.00;;;;;;5066672;28;20037;-75
2022/05/10 00:06:22;;;;;;;22.20;13.18;;;12.30;98.30;;;;;;5076175;28;20056;-75
2022/05/10 00:08:50;;;;;;;17.33;13.32;;;12.30;94.20;;;;;;5076376;28;20045;-75
2022/05/10 00:11:17;;;;;;;21.05;13.48;;;12.30;78.70;;;;;;5076451;28;20036;-76
2022/05/10 00:13:45;;;;;;;20.40;13.80;;;12.20;94.80;;;;;;5059039;28;20040;-76
2022/05/10 00:16:16;;;;;;;22.17;14.23;;;12.10;49.80;;;;;;5075930;28;20041;-74
2022/05/10 00:18:44;;;;;;;18.77;12.82;;;12.00;99.30;;;;;;5075127;28;20105;-75
2022/05/10 00:21:13;;;;;;;18.25;13.15;;;12.00;99.90;;;;;;5074208;28;20061;-76
2022/05/10 00:23:41;;;;;;;18.95;13.23;;;12.00;99.90;;;;;;5056229;28;20053;-76
2022/05/10 00:26:08;;;;;;;21.15;13.90;;;12.00;99.90;;;;;;5073445;28;20101;-76
2022/05/10 00:28:35;;;;;;;22.35;16.00;;;12.00;99.90;;;;;;5055911;28;20055;-76
2022/05/10 00:31:03;;;;;;;29.40;16.38;;;11.90;99.90;;;;;;5075518;28;20029;-75
2022/05/10 00:33:33;;;;;;;23.17;15.73;;;11.80;99.90;;;;;;5074154;28;20048;-74
2022/05/10 00:36:01;;;;;;;24.42;13.77;;;11.80;99.90;;;;;;5076392;28;20025;-76
2022/05/10 00:38:33;;;;;;;19.15;13.15;;;11.80;99.90;;;;;;5052485;28;20044;-77
2022/05/10 00:41:06;;;;;;;18.33;13.95;;;11.80;99.90;;;;;;5058671;28;20048;-76
2022/05/10 00:43:38;;;;;;;20.17;14.38;;;11.70;99.90;;;;;;5059456;28;20040;-76
2022/05/10 00:46:11;;;;;;;20.27;13.38;;;11.70;99.90;;;;;;5061302;28;20049;-76
2022/05/10 00:48:49;;;;;;;21.65;13.05;;;11.60;99.90;;;;;;5059241;28;20411;-77
2022/05/10 00:51:24;;;;;;;17.88;13.35;;;11.60;99.90;;;;;;5053860;28;20045;-76
2022/05/10 00:53:59;;;;;;;21.63;13.63;;;11.70;99.90;;;;;;5056280;28;20079;-76
2022/05/10 00:56:34;;;;;;;23.70;15.82;;;11.60;99.90;;;;;;5057684;28;20484;-77
2022/05/10 00:59:09;;;;;;;28.23;16.27;;;11.60;99.90;;;;;;5056872;28;20051;-77
2022/05/10 01:01:38;;;;;;;22.77;15.40;;;11.50;99.90;;;;;;5055860;28;20492;-77
2022/05/10 01:04:16;;;;;;;19.08;13.88;;;11.50;99.90;;;;;;5075565;28;20024;-75
2022/05/10 01:06:51;;;;;;;22.20;15.25;;;11.50;99.90;;;;;;5078318;28;20029;-75
2022/05/10 01:09:27;;;;;;;21.60;14.77;;;11.50;99.90;;;;;;5060897;28;20048;-75
2022/05/10 01:12:01;;;;;;;21.40;14.80;;;11.40;99.90;;;;;;5077177;28;20049;-76
2022/05/10 01:14:33;;;;;;;21.73;13.98;;;11.30;99.90;;;;;;5068465;28;20048;-77
2022/05/10 01:17:01;;;;;;;21.10;13.70;;;11.30;99.90;;;;;;5064358;28;20043;-76
2022/05/10 01:19:31;;;;;;;18.88;12.65;;;11.20;99.90;;;;;;5059744;28;20485;-76
2022/05/10 01:22:10;;;;;;;17.40;12.50;;;11.20;99.90;;;;;;5054017;28;20051;-77
2022/05/10 01:25:01;;;;;;;17.85;11.98;;;11.10;99.90;;;;;;5054053;28;20040;-77
2022/05/10 01:27:52;;;;;;;17.30;12.40;;;11.20;99.90;;;;;;5054757;28;20041;-77
2022/05/10 01:30:23;;;;;;;19.98;13.25;;;11.00;99.90;;;;;;5035663;28;20060;-76
2022/05/10 01:35:46;;;;;;;19.48;13.27;;;10.90;99.90;;;;;;5047586;28;20067;-75
2022/05/10 01:38:25;;;;;;;21.48;13.35;;;11.00;99.90;;;;;;5059639;28;20129;-76
2022/05/10 01:40:58;;;;;;;17.25;12.88;;;11.00;99.90;;;;;;5069038;28;20045;-76
2022/05/10 01:43:34;;;;;;;20.08;13.75;;;10.90;99.90;;;;;;5069086;28;20044;-76
2022/05/10 01:46:07;;;;;;;;;;;10.90;99.90;;;;;;5069308;28;20109;-75
2022/05/10 01:48:37;;;;;;;18.40;13.00;;;10.80;99.90;;;;;;5067886;28;19921;-77
2022/05/10 01:51:10;;;;;;;23.02;12.75;;;10.80;99.90;;;;;;5067075;28;20044;-76
2022/05/10 01:53:40;;;;;;;18.58;11.80;;;10.70;99.90;;;;;;5067331;28;20044;-76
2022/05/10 01:56:12;;;;;;;18.15;12.18;;;10.70;99.90;;;;;;5067286;28;20041;-76
2022/05/10 01:58:41;;;;;;;19.08;12.20;;;10.60;99.90;;;;;;5069132;28;20037;-75
2022/05/10 02:01:14;;;;;;;18.40;11.75;;;10.60;99.90;;;;;;5068941;28;20080;-76
2022/05/10 02:03:45;;;;;;;18.58;12.52;;;10.60;99.90;;;;;;5070181;28;20047;-77
2022/05/10 02:06:20;;;;;;;16.83;12.85;;;10.60;99.90;;;;;;5071326;28;20060;-75
2022/05/10 02:08:52;;;;;;;17.52;12.55;;;10.70;99.90;;;;;;5075148;28;20049;-75
2022/05/10 02:11:19;;;;;;;15.43;12.55;;;10.70;99.90;;;;;;5072575;28;20098;-76
2022/05/10 02:13:53;;;;;;;20.23;12.88;;;10.70;99.90;;;;;;5063395;28;20044;-76
2022/05/10 02:16:26;;;;;;;17.95;12.98;;;10.60;99.90;;;;;;5044300;28;20041;-77
2022/05/10 02:18:58;;;;;;;16.20;12.73;;;10.60;99.90;;;;;;5061523;28;20053;-75
2022/05/10 02:21:30;;;;;;;20.50;13.45;;;10.50;99.90;;;;;;5069152;28;20069;-76
2022/05/10 02:24:04;;;;;;;23.10;14.10;;;10.50;99.90;;;;;;5070048;28;20045;-76
2022/05/10 02:26:37;;;;;;;18.48;13.35;;;10.40;99.90;;;;;;5052065;28;20051;-77
2022/05/10 02:29:11;;;;;;;21.30;13.63;;;10.50;99.90;;;;;;5053908;28;20053;-76
2022/05/10 02:34:35;;;;;;;16.92;12.45;;;10.50;99.90;;;;;;5078902;28;20096;-76
2022/05/10 02:37:03;;;;;;;17.08;13.07;;;10.40;99.90;;;;;;5073472;28;20071;-75
2022/05/10 02:39:31;;;;;;;15.75;12.18;;;10.40;99.90;;;;;;5049575;28;20052;-76
2022/05/10 02:41:59;;;;;;;20.90;13.20;;;10.40;99.90;;;;;;5071543;28;20072;-77
2022/05/10 02:44:27;;;;;;;19.67;12.25;;;10.30;99.90;;;;;;5061089;28;20500;-75
2022/05/10 02:46:57;;;;;;;18.73;13.00;;;10.30;99.90;;;;;;5060783;28;20040;-76
2022/05/10 02:49:25;;;;;;;19.38;12.55;;;10.20;99.90;;;;;;5060543;28;20079;-76
2022/05/10 02:51:52;;;;;;;18.45;12.18;;;10.20;99.90;;;;;;5061477;28;20523;-76
2022/05/10 02:54:19;;;;;;;19.45;12.32;;;10.10;99.90;;;;;;5061096;28;20040;-76
2022/05/10 02:56:47;;;;;;;21.65;12.25;;;10.10;99.90;;;;;;5042572;28;20085;-76
2022/05/10 02:59:19;;;;;;;20.40;12.65;;;10.10;99.90;;;;;;5060451;28;20393;-76
2022/05/10 03:01:53;;;;;;;16.67;12.32;;;10.00;99.90;;;;;;5060483;28;20041;-76
2022/05/10 03:04:23;;;;;;;20.15;12.90;;;9.90;99.90;;;;;;5060658;28;20044;-76
2022/05/10 03:06:51;;;;;;;23.52;14.05;;;9.90;99.90;;;;;;5060673;28;20045;-76
2022/05/10 03:09:18;;;;;;;21.23;14.13;;;9.90;99.90;;;;;;5063666;28;20037;-77
2022/05/10 03:11:46;;;;;;;20.52;13.93;;;9.90;99.90;;;;;;5068050;28;20037;-76
2022/05/10 03:14:13;;;;;;;20.90;14.65;;;10.00;99.90;;;;;;5066751;28;20056;-76
2022/05/10 03:16:41;;;;;;;22.23;15.10;;;10.00;99.90;;;;;;5066804;28;20052;-76
2022/05/10 03:19:08;;;;;;;26.23;15.13;;;10.00;99.90;;;;;;5067219;28;20037;-76
2022/05/10 03:21:40;;;;;;;23.83;15.70;;;10.00;99.90;;;;;;5076844;28;20117;-76
2022/05/10 03:24:08;;;;;;;22.63;15.68;;;10.00;99.90;;;;;;5068523;28;20045;-78
2022/05/10 03:26:37;;;;;;;22.25;15.00;;;10.00;99.90;;;;;;5062177;28;20122;-77
2022/05/10 03:29:05;;;;;;;20.75;14.63;;;10.10;99.90;;;;;;5061159;28;20033;-76
2022/05/10 03:31:33;;;;;;;21.75;13.80;;;10.00;99.90;;;;;;5060886;28;20041;-76
2022/05/10 03:36:47;;;;;;;22.90;14.20;;;10.10;99.90;;;;;;5039758;28;20041;-76
2022/05/10 03:39:14;;;;;;;21.38;13.05;;;10.10;99.90;;;;;;5057620;28;20052;-76
2022/05/10 03:41:42;;;;;;;21.42;15.02;;;10.10;99.90;;;;;;5057982;28;20072;-76
2022/05/10 03:44:10;;;;;;;22.67;15.82;;;10.10;99.90;;;;;;5057927;28;20045;-76
2022/05/10 03:46:38;;;;;;;24.50;16.92;;;10.10;99.90;;;;;;5057085;28;20040;-76
2022/05/10 03:49:05;;;;;;;25.23;17.23;;;10.10;99.90;;;;;;5057859;28;20412;-76
2022/05/10 03:51:33;;;;;;;21.30;14.85;;;10.20;99.90;;;;;;5057659;28;20076;-77
2022/05/10 03:54:01;;;;;;;24.10;14.07;;;10.30;99.90;;;;;;5056224;28;20451;-76
2022/05/10 03:56:30;;;;;;;21.67;14.18;;;10.50;99.90;;;;;;5037388;28;20049;-76
2022/05/10 03:58:58;;;;;;;21.67;14.55;;;10.70;99.90;;;;;;5051426;28;20048;-76
2022/05/10 04:01:28;;;;;;;23.80;14.57;;;10.90;1.00;;;;;;5048326;28;20086;-76
2022/05/10 04:03:56;;;;;;;19.05;12.73;;;11.20;1.00;;;;;;5048250;28;20128;-76
2022/05/10 04:06:29;;;;;;;150.40;29.50;;;11.50;1.00;;;;;;5028593;28;20043;-76
2022/05/10 04:08:57;;;;;;;21.80;13.95;;;11.80;1.00;;;;;;5055709;28;20373;-77
2022/05/10 04:11:25;;;;;;;21.95;12.73;;;12.00;1.00;;;;;;5049216;28;20033;-77
2022/05/10 04:13:54;;;;;;;20.73;13.25;;;12.30;99.90;;;;;;5049288;28;20052;-76
2022/05/10 04:16:22;;;;;;;18.88;12.18;;;12.50;99.90;;;;;;5057998;28;20057;-75
2022/05/10 04:18:50;;;;;;;18.00;12.20;;;12.70;99.90;;;;;;5051439;28;20034;-77
2022/05/10 04:21:17;;;;;;;23.27;12.15;;;13.00;99.90;;;;;;5049721;28;20059;-76
2022/05/10 04:23:45;;;;;;;21.15;13.25;;;13.20;1.00;;;;;;5062783;28;20083;-77
2022/05/10 04:26:15;;;;;;;20.95;12.80;;;13.30;1.00;;;;;;5067571;28;20044;-76
2022/05/10 04:28:44;;;;;;;21.63;12.27;;;13.70;1.00;;;;;;5048047;28;20037;-76
2022/05/10 04:31:13;;;;;;;24.08;13.73;;;13.90;1.00;;;;;;5048589;28;20132;-77
2022/05/10 04:33:41;;;;;;;22.08;12.27;;;14.20;1.00;;;;;;5058698;28;20464;-77
2022/05/10 04:36:09;;;;;;;20.83;12.65;;;14.50;83.20;;;;;;5053391;28;20044;-76
2022/05/10 04:38:37;;;;;;;21.80;11.38;;;15.10;1.00;;;;;;5037155;28;20037;-75
2022/05/10 04:44:04;;;;;;;18.77;10.77;;;15.70;1.00;;;;;;4982330;28;20047;-75
2022/05/10 04:46:35;;;;;;;18.25;11.50;;;15.30;99.90;;;;;;4977377;28;20502;-74
2022/05/10 04:49:03;;;;;;;15.63;10.57;;;15.00;99.90;;;;;;4974996;28;20073;-74
2022/05/10 04:51:30;;;;;;;19.45;10.95;;;15.00;97.10;;;;;;4974235;28;20073;-73
2022/05/10 04:53:59;;;;;;;20.77;12.48;;;14.90;99.90;;;;;;4975066;28;20042;-75
2022/05/10 04:56:27;;;;;;;17.95;12.00;;;14.90;99.90;;;;;;4974055;28;20051;-76
2022/05/10 04:58:55;;;;;;;18.35;12.02;;;14.80;99.90;;;;;;4974492;28;20050;-75
2022/05/10 05:01:27;;;;;;;22.85;12.48;;;14.80;1.00;;;;;;4974942;28;20071;-74
2022/05/10 05:03:56;;;;;;;25.08;12.77;;;14.80;1.00;;;;;;4958842;28;20046;-75
2022/05/10 05:06:24;;;;;;;22.42;13.30;;;14.90;1.00;;;;;;4960511;28;20621;-75
2022/05/10 05:08:52;;;;;;;18.67;13.13;;;15.10;99.90;;;;;;4977362;28;20042;-74
2022/05/10 05:11:19;;;;;;;25.48;13.35;;;15.30;99.90;;;;;;4980969;28;20059;-74
2022/05/10 05:13:47;;;;;;;17.40;12.27;;;15.90;99.90;;;;;;4975942;28;20047;-76
2022/05/10 05:16:14;;;;;;;18.75;12.68;;;17.00;1.00;;;;;;4981520;28;20050;-74
2022/05/10 05:18:43;;;;;;;18.92;12.43;;;17.90;1.00;;;;;;5018586;28;20132;-75
2022/05/10 05:21:11;;;;;;;17.48;11.40;;;18.00;1.80;;;;;;5053752;23;20053;-74
2022/05/10 05:23:38;;;;;;;19.42;11.93;;;17.70;1.00;;;;;;5032217;28;20391;-74
2022/05/10 05:26:06;;;;;;;16.35;11.77;;;17.70;99.90;;;;;;5030208;28;20038;-74
2022/05/10 05:28:33;;;;;;;17.25;11.52;;;18.00;99.90;;;;;;5025506;28;20096;-74
2022/05/10 05:31:02;;;;;;;17.30;11.18;;;18.00;98.70;;;;;;5029158;28;20063;-74
2022/05/10 05:33:31;;;;;;;20.95;12.13;;;18.50;1.00;;;;;;5015688;28;20049;-74
2022/05/10 05:36:00;;;;;;;17.98;11.60;;;18.80;99.90;;;;;;5034101;28;20052;-73
2022/05/10 05:38:27;;;;;;;17.33;12.68;;;18.80;99.90;;;;;;5033381;28;20049;-74
2022/05/10 05:40:55;;;;;;;18.85;12.52;;;18.50;99.90;;;;;;5030761;28;20052;-73
2022/05/10 05:43:24;;;;;;;22.15;12.73;;;18.40;99.90;;;;;;5023894;28;20103;-73
2022/05/10 05:45:52;;;;;;;18.20;11.65;;;18.50;99.90;;;;;;5029334;28;20052;-73
2022/05/10 05:48:20;;;;;;;19.70;12.45;;;18.70;99.90;;;;;;5020914;28;20037;-73
2022/05/10 05:50:48;;;;;;;22.30;12.85;;;18.60;99.90;;;;;;5033553;28;20042;-74
2022/05/10 05:53:20;;;;;;;19.73;12.80;;;18.40;99.90;;;;;;5033806;28;20141;-73
2022/05/10 05:55:48;;;;;;;20.58;13.10;;;18.50;99.90;;;;;;5017278;28;20069;-72
2022/05/10 05:58:16;;;;;;;21.52;13.10;;;18.50;99.90;;;;;;5038273;28;20043;-74
2022/05/10 06:00:44;;;;;;;17.88;13.90;;;18.30;99.90;;;;;;5039243;28;20049;-74
2022/05/10 06:03:12;;;;;;;23.50;13.73;;;18.10;1.00;;;;;;5018189;28;20465;-73
2022/05/10 06:05:39;;;;;;;21.17;14.00;;;18.10;99.90;;;;;;5039438;28;20056;-73
2022/05/10 06:08:09;;;;;;;25.42;14.30;;;18.00;99.90;;;;;;5031898;28;20068;-74
2022/05/10 06:10:38;;;;;;;21.38;13.70;;;18.10;91.00;;;;;;5035395;28;20049;-75
2022/05/10 06:13:05;;;;;;;24.05;13.85;;;18.00;99.90;;;;;;5047411;28;20103;-74
2022/05/10 06:15:33;;;;;;;18.25;13.52;;;18.00;99.90;;;;;;5038592;28;20480;-73
2022/05/10 06:18:03;;;;;;;26.88;14.20;;;18.20;99.90;;;;;;5021631;28;20052;-74
2022/05/10 06:20:31;;;;;;;21.42;14.78;;;18.40;81.30;;;;;;4993366;28;1270970;-74
2022/05/10 06:22:58;;;;;;;25.75;14.70;;;18.50;44.70;;;;;;5033465;28;20041;-73
2022/05/10 06:25:27;;;;;;;27.27;15.48;;;18.90;1.00;;;;;;5005070;28;20045;-74
2022/05/10 06:27:56;;;;;;;27.88;16.17;;;19.40;99.90;;;;;;5034954;28;20049;-74
2022/05/10 06:30:25;;;;;;;21.65;14.70;;;19.80;55.90;;;;;;5024662;28;20072;-74
2022/05/10 06:32:55;;;;;;;26.35;16.83;;;20.20;1.00;;;;;;5030372;28;20052;-74
2022/05/10 06:35:23;;;;;;;38.75;19.33;;;20.40;1.00;;;;;;5036951;28;20041;-75
2022/05/10 06:40:35;;;;;;;28.45;14.00;;;20.30;1.00;;;;;;5037444;28;20123;-74
2022/05/10 06:43:07;;;;;;;25.60;15.23;;;19.90;1.00;;;;;;5038219;28;20073;-75
2022/05/10 06:45:36;;;;;;;30.05;14.98;;;19.90;1.00;;;;;;5020919;28;20122;-74
2022/05/10 06:48:05;;;;;;;20.85;13.23;;;19.90;1.00;;;;;;5017392;28;20531;-74
2022/05/10 06:50:33;;;;;;;24.85;13.45;;;20.20;1.00;;;;;;5026996;28;20045;-73
2022/05/10 06:53:01;;;;;;;26.15;13.70;;;20.50;1.00;;;;;;5034293;28;20128;-75
2022/05/10 06:55:30;;;;;;;22.23;13.25;;;20.90;1.00;;;;;;5038305;28;20326;-74
2022/05/10 06:57:58;;;;;;;24.65;14.43;;;21.20;1.00;;;;;;5020619;28;20045;-74
2022/05/10 07:00:26;;;;;;;25.58;13.77;;;21.50;1.00;;;;;;5038426;28;20468;-76
2022/05/10 07:02:55;;;;;;;22.05;15.90;;;21.70;1.00;;;;;;5037824;28;20060;-75
2022/05/10 07:05:24;;;;;;;25.83;16.10;;;21.60;1.00;;;;;;5038678;28;20053;-74
2022/05/10 07:07:51;;;;;;;20.83;13.55;;;21.80;1.00;;;;;;5039736;28;20047;-74
2022/05/10 07:10:19;;;;;;;25.13;14.15;;;21.90;1.00;;;;;;5039874;28;20111;-74
2022/05/10 07:12:47;;;;;;;25.80;14.23;;;22.30;1.00;;;;;;5019506;28;20049;-75
2022/05/10 07:15:19;;;;;;;19.58;13.50;;;22.80;1.00;;;;;;5037312;28;20056;-75
2022/05/10 07:17:52;;;;;;;19.50;14.85;;;23.10;1.00;;;;;;5037494;28;20042;-74
2022/05/10 07:20:21;;;;;;;23.83;15.52;;;22.80;1.00;;;;;;5037896;28;20053;-76
2022/05/10 07:22:48;;;;;;;24.65;16.02;;;22.50;1.00;;;;;;5004987;28;20475;-75
2022/05/10 07:25:18;;;;;;;24.17;14.95;;;22.30;1.00;;;;;;5001579;28;20082;-75
2022/05/10 07:27:46;;;;;;;21.35;13.68;;;22.50;1.00;;;;;;5006780;28;20398;-75
2022/05/10 07:30:15;;;;;;;24.67;14.32;;;22.60;1.00;;;;;;5000197;28;20119;-75
2022/05/10 07:32:43;;;;;;;24.45;14.60;;;22.80;1.00;;;;;;4996926;28;20485;-75
2022/05/10 07:35:13;;;;;;;20.83;12.48;;;23.00;1.00;;;;;;4997182;28;20057;-75
2022/05/10 07:37:41;;;;;;;24.95;13.02;;;23.20;1.00;;;;;;4997594;28;20039;-75
2022/05/10 07:40:10;;;;;;;17.48;12.80;;;23.00;1.00;;;;;;4997682;28;20494;-75
2022/05/10 07:42:39;;;;;;;20.38;15.38;;;22.80;1.00;;;;;;4997666;28;20062;-75
2022/05/10 07:45:08;;;;;;;19.65;15.48;;;22.90;1.00;;;;;;4998892;28;20042;-75
2022/05/10 07:47:35;;;;;;;23.17;15.65;;;22.70;1.00;;;;;;4996927;28;20074;-75
2022/05/10 07:50:03;;;;;;;31.67;19.30;;;22.70;1.00;;;;;;4995433;28;20042;-75
2022/05/10 07:52:32;;;;;;;23.63;17.35;;;23.00;1.00;;;;;;4995102;28;20058;-75
2022/05/10 07:55:02;;;;;;;26.27;17.67;;;23.00;1.00;;;;;;4996802;28;20050;-74
2022/05/10 07:57:29;;;;;;;27.52;18.60;;;22.90;1.00;;;;;;4996373;28;20494;-74
2022/05/10 07:59:56;;;;;;;26.80;18.30;;;23.00;1.00;;;;;;4997589;28;20050;-76
2022/05/10 08:02:24;;;;;;;38.47;27.30;;;23.00;1.00;;;;;;4996611;28;20587;-77
2022/05/10 08:04:51;;;;;;;31.77;22.08;;;23.20;1.00;;;;;;4994459;28;20058;-75
2022/05/10 08:07:19;;;;;;;36.42;24.08;;;23.40;1.00;;;;;;4997700;28;20043;-75
2022/05/10 08:09:48;;;;;;;34.63;24.35;;;23.20;1.00;;;;;;4997181;28;20049;-75
2022/05/10 08:12:15;;;;;;;32.00;25.05;;;23.10;1.00;;;;;;4997146;28;20109;-74
2022/05/10 08:14:43;;;;;;;36.50;27.77;;;23.00;1.00;;;;;;4997589;28;20046;-74
2022/05/10 08:17:10;;;;;;;44.65;31.33;;;23.10;1.00;;;;;;4997126;28;20465;-75
2022/05/10 08:19:37;;;;;;;33.75;28.08;;;23.40;1.00;;;;;;4996798;28;20066;-75
2022/05/10 08:22:05;;;;;;;31.17;25.15;;;23.30;1.00;;;;;;5023026;28;20061;-75
2022/05/10 08:24:33;;;;;;;32.95;25.10;;;23.10;1.00;;;;;;5034938;28;20503;-74
2022/05/10 08:27:05;;;;;;;32.30;22.83;;;22.90;1.00;;;;;;5035471;28;20562;-74
2022/05/10 08:29:32;;;;;;;31.27;23.00;;;22.70;1.00;;;;;;5017441;28;20061;-75
2022/05/10 08:31:59;;;;;;;33.88;25.70;;;22.70;1.00;;;;;;5017484;28;20037;-75
2022/05/10 08:34:27;;;;;;;32.03;24.48;;;22.50;1.00;;;;;;5034453;28;20588;-75
2022/05/10 08:36:56;;;;;;;32.20;24.80;;;22.60;1.00;;;;;;5017205;28;20107;-75
2022/05/10 08:39:23;;;;;;;30.70;24.08;;;22.90;1.00;;;;;;5017170;28;20046;-75
2022/05/10 08:41:56;;;;;;;32.60;22.70;;;23.10;1.00;;;;;;5034867;28;20059;-75
2022/05/10 08:44:28;;;;;;;29.88;22.42;;;22.90;1.00;;;;;;5017254;28;20080;-75
2022/05/10 08:47:00;;;;;;;30.77;21.83;;;22.90;1.00;;;;;;5035851;28;20059;-75
2022/05/10 08:49:34;;;;;;;31.45;21.27;;;23.10;1.00;;;;;;5035300;28;20033;-75
2022/05/10 08:52:03;;;;;;;24.95;19.83;;;23.60;1.00;;;;;;5035244;28;20566;-75
2022/05/10 08:54:31;;;;;;;27.02;20.15;;;23.30;1.00;;;;;;5035849;28;20570;-76
2022/05/10 08:57:03;;;;;;;27.33;19.25;;;23.00;1.00;;;;;;5015179;28;20088;-75
2022/05/10 08:59:40;;;;;;;27.90;20.42;;;23.10;1.00;;;;;;5035154;28;20064;-76
2022/05/10 09:02:14;;;;;;;20.83;16.25;;;23.60;1.00;;;;;;5032661;28;20416;-75
2022/05/10 09:04:49;;;;;;;22.88;16.15;;;23.60;1.00;;;;;;5030034;28;20072;-78
2022/05/10 09:07:22;;;;;;;;;;;24.00;1.00;;;;;;5027644;28;20106;-75
2022/05/10 09:10:01;;;;;;;23.98;16.90;;;24.20;1.00;;;;;;5030689;28;19921;-75
2022/05/10 09:12:32;;;;;;;22.42;13.73;;;23.90;1.00;;;;;;5035243;28;20415;-76
2022/05/10 09:15:03;;;;;;;23.63;14.25;;;23.80;1.00;;;;;;5018954;28;20050;-76
2022/05/10 09:17:33;;;;;;;19.83;13.80;;;24.30;1.00;;;;;;5014392;28;20489;-76
2022/05/10 09:20:00;;;;;;;19.00;13.43;;;24.50;1.00;;;;;;4997883;28;20412;-77
2022/05/10 09:22:38;;;;;;;20.88;13.05;;;24.10;1.00;;;;;;5010612;28;20061;-76
2022/05/10 09:25:18;;;;;;;18.08;12.48;;;23.90;1.00;;;;;;4995873;28;20065;-75
2022/05/10 09:27:46;;;;;;;15.52;12.93;;;23.90;1.00;;;;;;4997483;28;20137;-75
2022/05/10 09:30:28;;;;;;;25.13;15.07;;;23.90;1.00;;;;;;5048325;28;20033;-75
2022/05/10 09:36:01;;;;;;;21.88;14.40;;;24.40;1.00;;;;;;5008483;28;20037;-75
2022/05/10 09:38:28;;;;;;;17.23;12.88;;;24.50;1.00;;;;;;5011910;28;20054;-75
2022/05/10 09:40:56;;;;;;;17.77;12.15;;;24.50;1.00;;;;;;5014314;28;20105;-75
2022/05/10 09:43:26;;;;;;;20.25;11.82;;;24.50;1.00;;;;;;5009573;28;20501;-76
2022/05/10 09:46:13;;;;;;;19.52;12.25;;;24.20;1.00;;;;;;5014780;28;20040;-76
2022/05/10 09:48:43;;;;;;;19.13;13.10;;;23.90;1.00;;;;;;5001222;28;20410;-75
2022/05/10 09:51:36;;;;;;;16.33;11.98;;;23.90;1.00;;;;;;5014192;28;20488;-76
2022/05/10 09:54:05;;;;;;;15.98;11.05;;;23.70;1.00;;;;;;4997902;28;20559;-76
2022/05/10 09:56:38;;;;;;;14.60;10.82;;;23.60;1.00;;;;;;5024896;28;20046;-75
2022/05/10 09:59:27;;;;;;;15.07;11.60;;;23.50;1.00;;;;;;5012423;28;20044;-75
2022/05/10 10:01:58;;;;;;;15.00;11.80;;;23.40;1.00;;;;;;5010764;28;20081;-76
2022/05/10 10:04:31;;;;;;;15.32;11.73;;;23.70;1.00;;;;;;5012857;28;20519;-75
2022/05/10 10:07:09;;;;;;;17.13;10.98;;;24.10;1.00;;;;;;5011586;28;20050;-76
2022/05/10 10:09:38;;;;;;;16.25;10.13;;;24.40;1.00;;;;;;5012939;28;20500;-75
2022/05/10 10:12:13;;;;;;;13.45;9.13;;;24.30;1.00;;;;;;5013552;28;20068;-74
2022/05/10 10:14:44;;;;;;;11.65;8.98;;;24.00;1.00;;;;;;5013342;28;20057;-76
2022/05/10 10:17:22;;;;;;;10.68;8.90;;;23.40;1.00;;;;;;5013402;28;20077;-75
2022/05/10 10:19:54;;;;;;;11.27;8.23;;;23.30;1.00;;;;;;5023609;28;20073;-75
2022/05/10 10:22:28;;;;;;;14.13;7.88;;;23.20;1.00;;;;;;5013451;28;20054;-75
2022/05/10 10:25:02;;;;;;;14.23;7.05;;;23.40;1.00;;;;;;5006304;28;20145;-75
2022/05/10 10:27:35;;;;;;;10.35;6.85;;;23.70;1.00;;;;;;4994796;28;20039;-74
2022/05/10 10:30:07;;;;;;;11.05;8.55;;;24.30;1.00;;;;;;4999132;28;20055;-75
2022/05/10 10:32:41;;;;;;;18.42;12.55;;;24.70;1.00;;;;;;4998853;28;20046;-75
2022/05/10 10:35:18;;;;;;;9.20;7.00;;;25.00;1.00;;;;;;4998369;28;20042;-76
2022/05/10 10:37:51;;;;;;;9.60;6.65;;;25.10;1.00;;;;;;4997642;28;20046;-76
2022/05/10 10:40:31;;;;;;;10.02;7.25;;;25.40;1.00;;;;;;4998003;28;20053;-76
2022/05/10 10:43:07;;;;;;;11.25;7.85;;;25.50;1.00;;;;;;4998534;28;20054;-74
2022/05/10 10:45:40;;;;;;;8.80;6.95;;;25.40;1.00;;;;;;4998836;28;20496;-76
2022/05/10 10:48:30;;;;;;;7.30;5.82;;;25.30;1.00;;;;;;4999264;28;20053;-74
2022/05/10 10:50:58;;;;;;;;;;;25.20;1.00;;;;;;5016092;28;20053;-75
2022/05/10 10:53:28;;;;;;;7.70;5.20;;;25.20;1.00;;;;;;5015710;28;19921;-76
2022/05/10 10:56:19;;;;;;;11.75;5.50;;;24.80;1.00;;;;;;5006093;28;20138;-75
2022/05/10 10:58:57;;;;;;;11.07;5.20;;;24.30;1.00;;;;;;4996150;28;20042;-76
2022/05/10 11:01:55;;;;;;;7.40;4.80;;;24.30;1.00;;;;;;4978522;28;20090;-77
2022/05/10 11:04:55;;;;;;;16.40;11.70;;;24.30;1.00;;;;;;5004302;28;20481;-75
2022/05/10 11:07:30;;;;;;;9.43;5.20;;;24.20;1.00;;;;;;4978088;28;20054;-75
2022/05/10 11:10:04;;;;;;;7.97;4.70;;;24.20;1.00;;;;;;4989581;28;20045;-75
2022/05/10 11:12:49;;;;;;;8.77;6.60;;;24.20;1.00;;;;;;4997443;28;20552;-77
2022/05/10 11:15:34;;;;;;;8.20;4.95;;;24.50;1.00;;;;;;4995925;28;20050;-75
2022/05/10 11:18:16;;;;;;;11.80;5.20;;;24.50;1.00;;;;;;4997113;28;20070;-76
2022/05/10 11:20:53;;;;;;;10.15;5.15;;;24.30;1.00;;;;;;5001109;28;20046;-75
2022/05/10 11:23:31;;;;;;;7.22;3.85;;;24.40;1.00;;;;;;5036354;28;20052;-77
2022/05/10 11:26:18;;;;;;;5.72;3.33;;;24.20;1.00;;;;;;5039767;28;20050;-77
2022/05/10 11:29:21;;;;;;;5.20;3.22;;;24.00;1.00;;;;;;5016557;28;20056;-76
2022/05/10 11:31:58;;;;;;;4.43;3.03;;;23.70;1.00;;;;;;5020714;28;20045;-77
2022/05/10 11:34:45;;;;;;;4.55;3.10;;;23.50;1.00;;;;;;5037536;28;20045;-77
2022/05/10 11:37:15;;;;;;;;;;;23.20;1.00;;;;;;5040074;28;20445;-76
2022/05/10 11:40:05;;;;;;;5.70;3.17;;;23.40;1.00;;;;;;5037366;28;19944;-78
2022/05/10 11:42:48;;;;;;;6.80;4.20;;;23.80;1.00;;;;;;5029292;28;20037;-78
2022/05/10 11:45:47;;;;;;;5.85;3.40;;;24.30;1.00;;;;;;5020982;28;20049;-75
2022/05/10 11:48:57;;;;;;;6.18;3.40;;;24.30;1.00;;;;;;5043366;28;20081;-76
2022/05/10 11:51:54;;;;;;;6.78;3.67;;;24.50;1.00;;;;;;5012664;28;20100;-77
2022/05/10 11:54:45;;;;;;;;;;;24.80;1.00;;;;;;5024997;28;20050;-77
2022/05/10 11:57:16;;;;;;;6.45;3.95;;;24.80;1.00;;;;;;5032297;28;19921;-77
2022/05/10 11:59:45;;;;;;;9.07;3.95;;;24.50;1.00;;;;;;5027161;28;20105;-77
2022/05/10 12:02:45;;;;;;;5.63;3.55;;;24.50;1.00;;;;;;5041927;28;20045;-77
2022/05/10 12:05:24;;;;;;;6.68;3.38;;;24.50;1.00;;;;;;5025495;28;20424;-78
2022/05/10 12:07:53;;;;;;;7.72;3.50;;;24.50;1.00;;;;;;5040726;28;20042;-77
2022/05/10 12:10:35;;;;;;;9.52;3.65;;;24.20;1.00;;;;;;5041273;28;20037;-76
2022/05/10 12:13:09;;;;;;;8.27;4.15;;;24.10;1.00;;;;;;5044858;28;20046;-76
2022/05/10 12:21:57;;;;;;;7.13;4.03;;;24.10;1.00;;;;;;5035390;28;20045;-76
2022/05/10 12:24:33;;;;;;;7.38;3.35;;;24.40;1.00;;;;;;5034741;28;20095;-77
2022/05/10 12:27:16;;;;;;;6.93;4.30;;;24.30;1.00;;;;;;5015387;28;20045;-77
2022/05/10 12:30:17;;;;;;;5.30;3.20;;;24.30;1.00;;;;;;5023380;28;20049;-78
2022/05/10 12:32:46;;;;;;;6.10;3.50;;;24.20;1.00;;;;;;5017334;28;20049;-79
2022/05/10 12:35:35;;;;;;;9.60;4.00;;;24.40;1.00;;;;;;5027766;28;20500;-78
2022/05/10 12:38:02;;;;;;;10.45;6.50;;;24.50;1.00;;;;;;5022962;28;20684;-77
2022/05/10 12:40:51;;;;;;;5.93;4.28;;;24.60;1.00;;;;;;5038323;28;20042;-77
2022/05/10 12:43:44;;;;;;;7.05;3.67;;;24.70;1.00;;;;;;5040134;28;20041;-77
2022/05/10 12:46:28;;;;;;;8.77;5.38;;;24.80;1.00;;;;;;5043533;28;20087;-78
2022/05/10 12:49:32;;;;;;;8.52;3.83;;;24.90;1.00;;;;;;5051695;28;20495;-77
2022/05/10 12:52:20;;;;;;;7.30;3.92;;;24.90;1.00;;;;;;5049446;28;20526;-77
2022/05/10 12:54:52;;;;;;;8.82;3.75;;;24.70;1.00;;;;;;5048717;28;20037;-78
2022/05/10 12:57:32;;;;;;;5.68;3.95;;;24.50;1.00;;;;;;5050123;28;20068;-78
2022/05/10 13:00:07;;;;;;;11.38;5.38;;;24.20;1.00;;;;;;5053429;28;20045;-76
2022/05/10 13:02:40;;;;;;;7.20;4.53;;;24.30;1.00;;;;;;5035890;28;20041;-77
2022/05/10 13:05:14;;;;;;;7.38;4.15;;;24.20;1.00;;;;;;5052584;28;20050;-75
2022/05/10 13:08:09;;;;;;;12.93;4.47;;;24.10;1.00;;;;;;5047727;28;20041;-77
2022/05/10 13:10:37;;;;;;;8.60;5.63;;;23.90;1.00;;;;;;5058903;28;20037;-76
2022/05/10 13:13:09;;;;;;;9.98;5.45;;;23.80;1.00;;;;;;5062494;28;20048;-76
2022/05/10 13:15:44;;;;;;;9.07;4.75;;;23.70;1.00;;;;;;5045368;28;20052;-75
2022/05/10 13:18:18;;;;;;;6.95;5.43;;;23.70;1.00;;;;;;5061681;28;20087;-78
2022/05/10 13:20:47;;;;;;;14.15;4.95;;;23.60;1.00;;;;;;5062952;28;21369;-76
2022/05/10 13:23:15;;;;;;;26.60;5.93;;;23.60;1.00;;;;;;5058351;28;20052;-77
2022/05/10 13:25:44;;;;;;;12.38;5.13;;;23.80;1.00;;;;;;5059052;28;20037;-77
2022/05/10 13:28:13;;;;;;;12.38;4.93;;;23.90;1.00;;;;;;5046976;28;20045;-77